Time;durP1;ratioP1;P1;durP2;ratioP2;P2;SDS_P1;SDS_P2;PMS_P1;PMS_P2;Temp;Humidity;BMP_temperature;BMP_pressure;BME280_temperature;BME280_humidity;BME280_pressure;Samples;Min_cycle;Max_cycle;Signal;HPM_P1;HPM_P2
2021/01/13 00:01:29;;;;;;;;;5.00;4.75;;;;;13.91;45.95;97183.56;5995348;22;102579;-79
2021/01/13 00:03:56;;;;;;;;;6.25;5.25;;;;;13.85;45.57;97176.41;5972282;22;102770;-79
2021/01/13 00:06:23;;;;;;;;;4.00;3.75;;;;;13.85;46.53;97181.84;5991987;22;103934;-79
2021/01/13 00:08:50;;;;;;;;;6.00;4.25;;;;;13.78;46.14;97192.09;5995008;22;102751;-79
2021/01/13 00:11:17;;;;;;;;;4.00;4.00;;;;;13.73;46.21;97189.34;6003625;22;102529;-79
2021/01/13 00:13:43;;;;;;;;;5.00;4.00;;;;;13.74;45.91;97196.38;5976022;22;102897;-79
2021/01/13 00:16:13;;;;;;;;;3.00;3.00;;;;;13.71;46.11;97191.47;6001755;22;104039;-79
2021/01/13 00:18:41;;;;;;;;;1.00;1.00;;;;;13.73;46.30;97194.78;5999509;22;102399;-79
2021/01/13 00:21:14;;;;;;;;;4.50;3.50;;;;;13.68;46.22;97200.16;5990548;22;105981;-79
2021/01/13 00:23:45;;;;;;;;;4.00;3.75;;;;;13.65;46.32;97201.47;5995420;22;102628;-79
2021/01/13 00:26:25;;;;;;;;;5.00;4.75;;;;;13.65;45.90;97197.91;5999913;22;103989;-79
2021/01/13 00:28:52;;;;;;;;;3.00;3.00;;;;;13.61;46.18;97205.75;5998934;22;102661;-79
2021/01/13 00:31:19;;;;;;;;;4.00;4.00;;;;;13.58;45.87;97219.84;6000447;22;102478;-79
2021/01/13 00:33:47;;;;;;;;;4.00;3.75;;;;;13.55;45.91;97214.13;5998677;22;102865;-79
2021/01/13 00:36:31;;;;;;;;;3.75;3.75;;;;;13.53;46.49;97216.25;6001030;22;104360;-79
2021/01/13 00:38:58;;;;;;;;;4.25;3.25;;;;;13.48;46.48;97219.72;5991822;22;102841;-79
2021/01/13 00:41:25;;;;;;;;;4.75;3.75;;;;;13.47;46.18;97228.13;6000307;22;102672;-79
2021/01/13 00:43:52;;;;;;;;;5.75;3.00;;;;;13.46;46.72;97235.47;5973980;22;102594;-79
2021/01/13 00:46:19;;;;;;;;;4.00;3.50;;;;;13.46;46.07;97231.94;5997766;22;104345;-79
2021/01/13 00:48:46;;;;;;;;;4.50;4.00;;;;;13.43;47.03;97235.13;5993550;22;102843;-79
2021/01/13 00:51:13;;;;;;;;;4.00;4.00;;;;;13.38;45.90;97228.56;5977642;22;102986;-79
2021/01/13 00:53:40;;;;;;;;;3.00;2.25;;;;;13.37;46.80;97237.78;6001031;22;103002;-79
2021/01/13 00:56:07;;;;;;;;;5.00;3.00;;;;;13.35;46.81;97239.94;5992334;22;104022;-79
2021/01/13 00:58:34;;;;;;;;;4.00;3.00;;;;;13.33;46.21;97250.22;6008289;22;102575;-79
2021/01/13 01:01:01;;;;;;;;;3.00;2.00;;;;;13.32;46.66;97262.16;6001867;22;102928;-79
2021/01/13 01:03:28;;;;;;;;;4.00;3.00;;;;;13.28;47.18;97263.72;5989580;22;102860;-79
2021/01/13 01:05:57;;;;;;;;;4.00;3.00;;;;;13.27;47.22;97264.81;6000073;22;103620;-79
2021/01/13 01:08:24;;;;;;;;;5.25;4.00;;;;;13.25;46.15;97268.84;5998611;22;102652;-79
2021/01/13 01:10:52;;;;;;;;;3.00;2.25;;;;;13.25;46.87;97266.13;6001914;22;102802;-79
2021/01/13 01:13:18;;;;;;;;;5.00;3.00;;;;;13.23;46.27;97271.81;6003572;22;102867;-79
2021/01/13 01:15:45;;;;;;;;;2.75;2.75;;;;;13.21;46.66;97278.56;6003905;22;103940;-79
2021/01/13 01:18:12;;;;;;;;;4.00;3.00;;;;;13.19;47.16;97276.06;6004006;22;102536;-79
2021/01/13 01:20:39;;;;;;;;;3.00;3.00;;;;;13.16;46.66;97282.00;6004002;22;102560;-79
2021/01/13 01:23:06;;;;;;;;;6.00;4.25;;;;;13.16;46.94;97282.00;6004131;22;102831;-79
2021/01/13 01:25:32;;;;;;;;;3.50;3.00;;;;;13.13;46.76;97279.81;5976219;22;103598;-79
2021/01/13 01:28:00;;;;;;;;;2.00;2.00;;;;;13.12;46.48;97286.31;5998383;22;102852;-79
2021/01/13 01:30:28;;;;;;;;;5.75;3.50;;;;;13.10;46.49;97293.84;5999832;22;102546;-79
2021/01/13 01:32:55;;;;;;;;;3.00;2.00;;;;;13.09;46.29;97303.06;6006193;22;102862;-79
2021/01/13 01:35:21;;;;;;;;;2.75;2.00;;;;;13.08;46.84;97308.72;5999630;22;103970;-79
2021/01/13 01:37:50;;;;;;;;;4.00;3.00;;;;;13.06;46.48;97306.25;6005934;22;102650;-79
2021/01/13 01:40:18;;;;;;;;;2.00;2.00;;;;;13.05;46.49;97312.78;5975274;22;102612;-79
2021/01/13 01:42:50;;;;;;;;;2.00;2.00;;;;;13.04;46.81;97316.53;5989377;22;104064;-79
2021/01/13 01:45:27;;;;;;;;;2.50;2.50;;;;;13.03;46.85;97314.06;6002275;22;104089;-78
2021/01/13 01:48:25;;;;;;;;;3.25;3.00;;;;;13.01;46.89;97319.75;5972367;22;104300;-79
2021/01/13 01:50:52;;;;;;;;;2.25;2.25;;;;;13.00;46.58;97326.25;5913708;22;103058;-79
2021/01/13 01:53:38;;;;;;;;;3.00;3.00;;;;;12.98;47.22;97323.78;6000077;22;102894;-79
2021/01/13 01:56:10;;;;;;;;;3.00;3.00;;;;;12.96;46.61;97319.69;5998009;22;108771;-79
2021/01/13 01:58:37;;;;;;;;;3.75;2.00;;;;;12.94;46.87;97332.66;5997525;22;102658;-78
2021/01/13 02:01:05;;;;;;;;;2.00;1.75;;;;;12.93;47.37;97336.44;5995503;22;102818;-79
2021/01/13 02:03:43;;;;;;;;;5.00;3.00;;;;;12.92;47.00;97318.53;5991419;22;102783;-79
2021/01/13 02:06:11;;;;;;;;;2.00;2.00;;;;;12.90;47.37;97323.38;5970286;22;109174;-78
2021/01/13 02:08:39;;;;;;;;;2.50;2.00;;;;;12.87;46.66;97315.75;5953086;22;102895;-78
2021/01/13 02:11:07;;;;;;;;;3.00;2.00;;;;;12.87;46.61;97310.31;5996941;22;102895;-78
2021/01/13 02:13:34;;;;;;;;;2.75;1.00;;;;;12.85;47.23;97320.56;5999826;22;102698;-79
2021/01/13 02:16:01;;;;;;;;;2.50;2.00;;;;;12.82;46.63;97321.06;5971428;22;108644;-79
2021/01/13 02:18:28;;;;;;;;;3.00;2.25;;;;;12.83;47.14;97328.16;5992103;22;102792;-79
2021/01/13 02:20:55;;;;;;;;;2.00;2.00;;;;;12.83;47.20;97326.25;5996673;22;102823;-79
2021/01/13 02:23:34;;;;;;;;;4.00;2.50;;;;;12.80;46.56;97329.44;6000816;22;102796;-78
2021/01/13 02:26:22;;;;;;;;;2.50;1.50;;;;;12.79;46.49;97324.25;6000665;22;109628;-79
2021/01/13 02:29:00;;;;;;;;;2.50;1.75;;;;;12.79;47.21;97321.53;5826179;22;102796;-78
2021/01/13 02:31:44;;;;;;;;;3.75;2.25;;;;;12.77;47.38;97316.38;5998387;22;102514;-79
2021/01/13 02:34:49;;;;;;;;;2.00;1.25;;;;;12.75;46.50;97323.13;5849120;22;102946;-78
2021/01/13 02:37:42;;;;;;;;;4.00;2.50;;;;;12.73;47.30;97319.84;5809619;22;108691;-78
2021/01/13 02:40:11;;;;;;;;;2.00;2.00;;;;;12.72;46.56;97315.47;5993064;22;102850;-79
2021/01/13 02:42:41;;;;;;;;;1.25;1.00;;;;;12.71;47.64;97321.97;6000283;22;102537;-79
2021/01/13 02:45:14;;;;;;;;;1.00;1.00;;;;;12.69;46.83;97330.38;5998535;22;102694;-78
2021/01/13 02:48:01;;;;;;;;;2.00;2.00;;;;;12.69;47.07;97324.94;5953928;22;945720;-78
2021/01/13 02:50:35;;;;;;;;;3.00;1.00;;;;;12.67;46.59;97326.25;5971225;22;102732;-79
2021/01/13 02:53:30;;;;;;;;;2.00;1.00;;;;;12.65;46.94;97329.22;5974531;22;102727;-78
2021/01/13 02:55:57;;;;;;;;;2.75;2.00;;;;;12.65;47.21;97320.25;5879682;22;102840;-78
2021/01/13 02:58:24;;;;;;;;;2.00;2.00;;;;;12.64;47.26;97326.75;5965744;22;103995;-78
2021/01/13 03:00:54;;;;;;;;;2.00;1.75;;;;;12.63;46.81;97325.09;5967792;22;102715;-79
2021/01/13 03:03:21;;;;;;;;;2.25;1.50;;;;;12.62;47.53;97334.28;5964886;22;104504;-78
2021/01/13 03:05:48;;;;;;;;;3.00;2.00;;;;;12.60;47.55;97331.00;5973818;22;102949;-78
2021/01/13 03:08:15;;;;;;;;;1.00;1.00;;;;;12.58;47.03;97325.00;5962970;22;104413;-78
2021/01/13 03:10:45;;;;;;;;;3.00;2.00;;;;;12.56;46.52;97324.44;5966074;22;102567;-78
2021/01/13 03:13:12;;;;;;;;;1.50;1.25;;;;;12.55;47.04;97330.91;5968798;22;102922;-78
2021/01/13 03:15:38;;;;;;;;;2.00;1.25;;;;;12.54;47.53;97332.81;5953435;22;102825;-78
2021/01/13 03:18:27;;;;;;;;;1.00;1.00;;;;;12.53;47.10;97331.16;5964218;22;104011;-78
2021/01/13 03:21:12;;;;;;;;;3.00;1.50;;;;;12.50;46.93;97327.06;5880226;22;102559;-78
2021/01/13 03:24:00;;;;;;;;;2.00;1.00;;;;;12.50;47.02;97320.81;5935029;22;102523;-78
2021/01/13 03:26:29;;;;;;;;;2.00;1.00;;;;;12.50;47.45;97329.75;5977144;22;102878;-78
2021/01/13 03:28:56;;;;;;;;;0.00;0.00;;;;;12.50;46.75;97329.75;5970473;22;103977;-78
2021/01/13 03:31:25;;;;;;;;;2.00;1.00;;;;;12.48;46.90;97328.34;5955908;22;102508;-79
2021/01/13 03:34:19;;;;;;;;;3.00;2.00;;;;;12.47;47.15;97338.38;5968575;22;102892;-79
2021/01/13 03:37:06;;;;;;;;;2.00;1.00;;;;;12.45;46.63;97334.25;5804551;22;105843;-78
2021/01/13 03:39:37;;;;;;;;;1.75;1.00;;;;;12.44;46.90;97338.03;5968199;22;107290;-78
2021/01/13 03:42:08;;;;;;;;;3.00;1.00;;;;;12.42;47.01;97341.00;5976136;22;102554;-78
2021/01/13 03:44:36;;;;;;;;;2.00;2.00;;;;;12.43;47.61;97342.63;5967193;22;102725;-78
2021/01/13 03:47:27;;;;;;;;;2.00;0.75;;;;;12.42;47.54;97351.84;5988620;22;102811;-78
2021/01/13 03:50:10;;;;;;;;;0.75;0.75;;;;;12.40;46.95;97345.84;5893154;22;109380;-78
2021/01/13 03:52:45;;;;;;;;;1.75;1.00;;;;;12.40;47.35;97353.97;5973238;22;102708;-79
2021/01/13 03:55:12;;;;;;;;;1.00;1.00;;;;;12.38;46.63;97344.44;5893057;22;110835;-78
2021/01/13 03:58:01;;;;;;;;;1.00;1.00;;;;;12.37;47.58;97353.63;5972726;22;102895;-78
2021/01/13 04:00:37;;;;;;;;;1.25;1.00;;;;;12.36;46.88;97358.22;5997041;22;104008;-79
2021/01/13 04:03:20;;;;;;;;;2.25;1.00;;;;;12.35;47.32;97351.16;5974234;22;102550;-78
2021/01/13 04:06:06;;;;;;;;;0.50;0.00;;;;;12.33;46.85;97347.88;5889316;22;102586;-79
2021/01/13 04:08:40;;;;;;;;;2.00;2.00;;;;;12.33;47.50;97361.44;6072048;22;102643;-79
2021/01/13 04:11:09;;;;;;;;;1.75;1.75;;;;;12.34;46.90;97365.78;5966330;22;108633;-79
2021/01/13 04:13:42;;;;;;;;;1.00;1.00;;;;;12.32;46.96;97356.25;5973707;22;102794;-78
2021/01/13 04:16:11;;;;;;;;;1.75;1.75;;;;;12.32;47.02;97358.97;5965316;22;102559;-78
2021/01/13 04:18:38;;;;;;;;;1.00;1.00;;;;;12.31;47.01;97360.03;5968468;22;102815;-78
2021/01/13 04:21:06;;;;;;;;;1.50;1.50;;;;;12.30;47.17;97361.91;5975777;22;104256;-79
2021/01/13 04:23:33;;;;;;;;;1.00;1.00;;;;;12.30;47.43;97359.19;5964020;22;102557;-78
2021/01/13 04:26:00;;;;;;;;;0.00;0.00;;;;;12.30;47.22;97371.91;5970672;22;102541;-78
2021/01/13 04:28:27;;;;;;;;;0.75;0.75;;;;;12.30;47.64;97377.34;5948542;22;104923;-78
2021/01/13 04:30:54;;;;;;;;;1.00;1.00;;;;;12.28;46.90;97374.91;5964302;22;104020;-78
2021/01/13 04:33:22;;;;;;;;;1.00;1.00;;;;;12.29;47.31;97379.22;5968674;22;102728;-78
2021/01/13 04:35:49;;;;;;;;;2.00;1.00;;;;;12.27;47.07;97375.94;5971277;22;102700;-78
2021/01/13 04:38:35;;;;;;;;;1.00;1.00;;;;;12.26;47.22;97377.00;5945407;22;102941;-78
2021/01/13 04:41:06;;;;;;;;;1.00;1.00;;;;;12.26;47.32;97382.44;5966142;22;110134;-78
2021/01/13 04:43:55;;;;;;;;;1.75;1.00;;;;;12.26;46.97;97384.31;5971920;22;102531;-79
2021/01/13 04:46:35;;;;;;;;;2.00;0.25;;;;;12.24;47.21;97384.56;5900490;22;102807;-78
2021/01/13 04:49:02;;;;;;;;;1.00;1.00;;;;;12.23;47.18;97396.47;6000738;22;102775;-78
2021/01/13 04:51:33;;;;;;;;;1.00;1.00;;;;;12.23;47.06;97382.09;5995539;22;104017;-78
2021/01/13 04:53:59;;;;;;;;;0.50;0.25;;;;;12.21;47.38;97379.63;6001243;22;102872;-79
2021/01/13 04:56:26;;;;;;;;;1.75;1.00;;;;;12.19;47.35;97381.75;5970263;22;102969;-78
2021/01/13 04:58:56;;;;;;;;;1.00;0.25;;;;;12.19;47.47;97389.06;5976928;22;102715;-79
2021/01/13 05:01:42;;;;;;;;;1.00;1.00;;;;;12.19;47.24;97394.47;5991223;22;104179;-79
2021/01/13 05:04:15;;;;;;;;;2.00;1.00;;;;;12.17;47.16;97392.00;5996332;22;102886;-78
2021/01/13 05:07:24;;;;;;;;;1.00;1.00;;;;;12.14;46.67;97397.91;5999327;22;104447;-78
2021/01/13 05:09:58;;;;;;;;;1.25;1.00;;;;;12.16;47.29;97411.22;5920280;22;103012;-78
2021/01/13 05:12:38;;;;;;;;;1.00;1.00;;;;;12.14;47.05;97411.47;5999248;22;103702;-78
2021/01/13 05:15:05;;;;;;;;;0.25;0.00;;;;;12.15;47.61;97415.00;5995976;22;102569;-78
2021/01/13 05:17:33;;;;;;;;;0.00;0.00;;;;;12.14;46.95;97413.34;5993073;22;104624;-79
2021/01/13 05:20:06;;;;;;;;;2.25;1.00;;;;;12.13;47.46;97423.34;5977984;22;102726;-78
2021/01/13 05:22:34;;;;;;;;;1.50;1.00;;;;;12.11;47.32;97428.22;5991390;22;108758;-78
2021/01/13 05:25:05;;;;;;;;;1.00;1.00;;;;;12.10;47.15;97434.69;5976772;22;102559;-78
2021/01/13 05:27:46;;;;;;;;;1.00;1.00;;;;;12.10;47.15;97450.13;6003814;22;102536;-78
2021/01/13 05:30:14;;;;;;;;;1.75;1.00;;;;;12.06;47.00;97455.19;5920477;22;102628;-78
2021/01/13 05:32:41;;;;;;;;;1.75;1.00;;;;;12.09;46.96;97452.00;5999872;22;104083;-78
2021/01/13 05:35:08;;;;;;;;;0.00;0.00;;;;;12.06;46.87;97455.19;6003737;22;102912;-78
2021/01/13 05:37:48;;;;;;;;;1.00;1.00;;;;;12.06;46.96;97455.19;6002385;22;102800;-78
2021/01/13 05:40:16;;;;;;;;;2.00;1.00;;;;;12.05;47.41;97473.34;5893573;22;102744;-78
2021/01/13 05:42:45;;;;;;;;;1.00;1.00;;;;;12.04;47.24;97468.16;6000000;22;103807;-78
2021/01/13 05:45:12;;;;;;;;;1.25;0.75;;;;;12.03;46.82;97474.63;5980116;22;102626;-78
2021/01/13 05:47:53;;;;;;;;;0.00;0.00;;;;;12.02;47.01;97468.38;5988819;22;102512;-78
2021/01/13 05:50:22;;;;;;;;;1.75;1.00;;;;;12.03;47.33;97466.47;6005997;22;102913;-78
2021/01/13 05:52:53;;;;;;;;;2.00;1.00;;;;;12.01;47.29;97476.75;5971032;22;103506;-78
2021/01/13 05:55:22;;;;;;;;;2.00;1.00;;;;;12.01;47.30;97468.63;5966018;22;102927;-78
2021/01/13 05:57:59;;;;;;;;;0.00;0.00;;;;;11.98;47.16;97475.31;6000828;22;102586;-78
2021/01/13 06:00:27;;;;;;;;;1.00;0.00;;;;;11.98;47.46;97475.31;5990219;22;102590;-79
2021/01/13 06:03:03;;;;;;;;;0.75;0.00;;;;;11.98;46.94;97477.22;5993565;22;103958;-78
2021/01/13 06:05:34;;;;;;;;;1.00;0.00;;;;;11.97;47.18;97478.28;5996292;22;102729;-78
2021/01/13 06:08:02;;;;;;;;;0.50;0.50;;;;;11.96;47.07;97482.88;5973291;22;102537;-78
2021/01/13 06:10:35;;;;;;;;;1.00;0.25;;;;;11.97;47.27;97495.38;5996041;22;103088;-78
2021/01/13 06:13:05;;;;;;;;;0.00;0.00;;;;;11.95;47.31;97500.19;5988822;22;103986;-78
2021/01/13 06:15:36;;;;;;;;;2.00;1.00;;;;;11.95;47.57;97504.78;5998617;22;102936;-78
2021/01/13 06:18:02;;;;;;;;;0.75;0.00;;;;;11.92;47.17;97500.69;5970247;22;105883;-78
2021/01/13 06:20:30;;;;;;;;;0.00;0.00;;;;;11.93;47.49;97510.44;5997117;22;102862;-78
2021/01/13 06:22:58;;;;;;;;;0.75;0.75;;;;;11.91;46.99;97520.69;6000066;22;103948;-78
2021/01/13 06:25:28;;;;;;;;;0.75;0.00;;;;;11.90;47.33;97524.44;5996104;22;102582;-78
2021/01/13 06:27:57;;;;;;;;;0.00;0.00;;;;;11.91;47.24;97528.00;5996520;22;102976;-78
2021/01/13 06:30:28;;;;;;;;;1.00;0.00;;;;;11.89;47.70;97530.09;6001916;22;102424;-78
2021/01/13 06:33:06;;;;;;;;;0.50;0.50;;;;;11.89;47.60;97535.50;5996139;22;104166;-78
2021/01/13 06:35:42;;;;;;;;;1.00;1.00;;;;;11.89;47.47;97535.50;5960009;22;102804;-78
2021/01/13 06:38:25;;;;;;;;;0.00;0.00;;;;;11.88;47.86;97544.72;5998832;22;102760;-78
2021/01/13 06:40:59;;;;;;;;;0.00;0.00;;;;;11.87;47.39;97548.47;5912074;22;102901;-78
2021/01/13 06:43:25;;;;;;;;;0.00;0.00;;;;;11.88;47.08;97555.56;5987541;22;103967;-78
2021/01/13 06:45:53;;;;;;;;;0.50;0.25;;;;;11.85;47.36;97556.84;5986650;22;103242;-78
2021/01/13 06:48:25;;;;;;;;;0.00;0.00;;;;;11.84;47.60;97560.59;5994997;22;102855;-78
2021/01/13 06:50:58;;;;;;;;;0.75;0.00;;;;;11.84;47.04;97557.09;5974909;22;103005;-78
2021/01/13 06:53:36;;;;;;;;;0.00;0.00;;;;;11.83;47.61;97566.25;5962086;22;104233;-78
2021/01/13 06:56:22;;;;;;;;;1.00;1.00;;;;;11.83;47.59;97575.22;5992894;22;102732;-78
2021/01/13 06:59:02;;;;;;;;;0.75;0.75;;;;;11.84;47.75;97581.47;5891004;22;102911;-78
2021/01/13 07:01:29;;;;;;;;;0.50;0.50;;;;;11.82;48.05;97578.97;6001290;22;102773;-78
2021/01/13 07:04:04;;;;;;;;;0.00;0.00;;;;;11.83;47.35;97596.06;5963638;22;104398;-78
2021/01/13 07:06:34;;;;;;;;;0.75;0.00;;;;;11.83;47.80;97587.94;5990858;22;102741;-78
2021/01/13 07:09:01;;;;;;;;;0.50;0.00;;;;;11.82;47.80;97583.56;5987633;22;102661;-78
2021/01/13 07:11:28;;;;;;;;;1.25;0.50;;;;;11.83;47.84;97593.34;5988149;22;102880;-78
2021/01/13 07:13:55;;;;;;;;;1.00;1.00;;;;;11.83;47.69;97585.22;5992947;22;105870;-78
2021/01/13 07:16:26;;;;;;;;;0.00;0.00;;;;;11.82;47.80;97586.28;5966258;22;102828;-78
2021/01/13 07:18:57;;;;;;;;;0.00;0.00;;;;;11.82;48.18;97599.81;5996446;22;102644;-77
2021/01/13 07:21:37;;;;;;;;;1.75;1.00;;;;;11.82;48.11;97597.94;5978714;22;102985;-78
2021/01/13 07:24:13;;;;;;;;;0.25;0.25;;;;;11.82;48.45;97600.66;5974753;22;103982;-78
2021/01/13 07:26:40;;;;;;;;;1.00;1.00;;;;;11.82;47.67;97599.81;5970733;22;102630;-78
2021/01/13 07:29:07;;;;;;;;;1.00;1.00;;;;;11.80;48.29;97597.34;5995820;22;102786;-77
2021/01/13 07:31:34;;;;;;;;;0.00;0.00;;;;;11.82;48.32;97605.22;5999527;22;102735;-78
2021/01/13 07:34:40;;;;;;;;;0.75;0.25;;;;;11.82;47.80;97600.66;5997288;22;104137;-78
2021/01/13 07:37:08;;;;;;;;;0.75;0.75;;;;;11.83;48.44;97612.31;5923819;22;102897;-78
2021/01/13 07:40:13;;;;;;;;;0.50;0.50;;;;;11.83;48.23;97596.88;5997681;22;102458;-78
2021/01/13 07:42:40;;;;;;;;;0.50;0.50;;;;;11.83;47.84;97599.59;5920189;22;102750;-77
2021/01/13 07:45:13;;;;;;;;;0.75;0.00;;;;;11.83;48.23;97601.47;6002606;22;109794;-77
2021/01/13 07:47:55;;;;;;;;;0.00;0.00;;;;;11.82;48.16;97600.66;5973454;22;105139;-77
2021/01/13 07:50:22;;;;;;;;;0.25;0.25;;;;;11.81;48.23;97606.28;6003216;22;102470;-78
2021/01/13 07:52:50;;;;;;;;;1.00;0.00;;;;;11.82;48.32;97605.22;6000300;22;102493;-78
2021/01/13 07:55:23;;;;;;;;;0.00;0.00;;;;;11.83;48.22;97602.31;5974274;22;104057;-77
2021/01/13 07:57:51;;;;;;;;;1.00;0.75;;;;;11.84;48.23;97603.13;6000588;22;103848;-77
2021/01/13 08:00:28;;;;;;;;;0.00;0.00;;;;;11.83;48.81;97601.47;5997349;22;102745;-77
2021/01/13 08:03:18;;;;;;;;;0.25;0.25;;;;;11.82;48.22;97603.34;5978212;22;102983;-77
2021/01/13 08:05:57;;;;;;;;;0.00;0.00;;;;;11.83;48.01;97617.72;5997407;22;108735;-78
2021/01/13 08:08:35;;;;;;;;;0.75;0.75;;;;;11.84;48.61;97613.97;5999232;22;102474;-78
2021/01/13 08:11:02;;;;;;;;;0.50;0.00;;;;;11.84;48.76;97616.69;5972722;22;102647;-78
2021/01/13 08:13:40;;;;;;;;;1.00;1.00;;;;;11.85;48.83;97621.00;6000295;22;102833;-77
2021/01/13 08:16:25;;;;;;;;;0.00;0.00;;;;;11.83;48.57;97612.31;5996325;22;108870;-78
2021/01/13 08:19:44;;;;;;;;;1.75;0.25;;;;;11.84;48.45;97619.38;5848226;22;103204;-77
2021/01/13 08:22:14;;;;;;;;;1.00;1.00;;;;;11.83;48.50;97620.44;5853929;22;102810;-78
2021/01/13 08:24:43;;;;;;;;;1.75;1.00;;;;;11.84;48.60;97630.22;5918115;22;102678;-78
2021/01/13 08:27:10;;;;;;;;;0.75;0.75;;;;;11.83;48.30;97623.16;5920702;22;109311;-78
2021/01/13 08:29:38;;;;;;;;;0.25;0.00;;;;;11.83;48.26;97621.25;5999992;22;102626;-78
2021/01/13 08:32:12;;;;;;;;;2.00;1.00;;;;;11.84;48.56;97624.81;6002276;22;102632;-77
2021/01/13 08:34:46;;;;;;;;;0.75;0.00;;;;;11.83;48.35;97623.16;5996276;22;102936;-78
2021/01/13 08:37:13;;;;;;;;;2.00;1.50;;;;;11.81;48.53;97622.53;5998379;22;108810;-77
2021/01/13 08:39:43;;;;;;;;;1.00;1.00;;;;;11.85;48.72;97623.72;5979077;22;102709;-78
2021/01/13 08:42:20;;;;;;;;;0.00;0.00;;;;;11.84;48.20;97613.97;6003193;22;102925;-78
2021/01/13 08:44:47;;;;;;;;;0.50;0.50;;;;;11.85;48.52;97621.00;5919858;22;102579;-77
2021/01/13 08:47:14;;;;;;;;;2.00;0.50;;;;;11.84;48.53;97620.19;5999178;22;103993;-77
2021/01/13 08:49:44;;;;;;;;;0.25;0.25;;;;;11.86;48.50;97625.38;6002289;22;102725;-77
2021/01/13 08:52:24;;;;;;;;;1.75;1.00;;;;;11.87;48.63;97608.06;6007122;22;102715;-77
2021/01/13 08:55:11;;;;;;;;;1.00;1.00;;;;;11.85;48.46;97616.41;5917838;22;102880;-78
2021/01/13 08:57:57;;;;;;;;;0.50;0.00;;;;;11.86;48.93;97626.19;5997619;22;108827;-77
2021/01/13 09:00:24;;;;;;;;;0.50;0.00;;;;;11.86;48.00;97623.50;5853798;22;102838;-77
2021/01/13 09:03:01;;;;;;;;;1.25;0.75;;;;;11.87;48.58;97633.28;5978747;22;102868;-78
2021/01/13 09:05:31;;;;;;;;;1.75;0.00;;;;;11.86;48.47;97623.50;5978222;22;103005;-77
2021/01/13 09:07:59;;;;;;;;;1.00;1.00;;;;;11.85;48.80;97642.69;5999777;22;103384;-78
2021/01/13 09:10:47;;;;;;;;;1.25;1.00;;;;;11.87;48.18;97640.56;5995201;22;102718;-78
2021/01/13 09:13:33;;;;;;;;;0.75;0.75;;;;;11.86;48.94;97630.78;5977850;22;102547;-78
2021/01/13 09:16:26;;;;;;;;;1.75;1.75;;;;;11.86;48.53;97633.50;6005543;22;102846;-77
2021/01/13 09:19:00;;;;;;;;;1.00;1.00;;;;;11.85;48.09;97637.25;5916634;22;108550;-77
2021/01/13 09:21:31;;;;;;;;;2.50;2.50;;;;;11.86;48.52;97630.78;6002584;22;102849;-78
2021/01/13 09:23:58;;;;;;;;;1.00;0.25;;;;;11.84;48.45;97636.44;6003096;22;102747;-78
2021/01/13 09:26:31;;;;;;;;;2.00;1.00;;;;;11.84;48.66;97639.13;5999661;22;102908;-77
2021/01/13 09:28:59;;;;;;;;;1.00;1.00;;;;;11.85;47.98;97648.09;6001019;22;104028;-77
2021/01/13 09:31:26;;;;;;;;;2.00;1.50;;;;;11.85;48.71;97640.78;5997581;22;102414;-77
2021/01/13 09:33:53;;;;;;;;;2.00;1.00;;;;;11.84;48.41;97638.34;6007335;22;102721;-77
2021/01/13 09:36:20;;;;;;;;;1.00;1.00;;;;;11.84;48.61;97631.00;6005193;22;102836;-77
2021/01/13 09:38:47;;;;;;;;;1.50;1.00;;;;;11.85;48.31;97629.13;5996389;22;104286;-77
2021/01/13 09:41:24;;;;;;;;;2.00;2.00;;;;;11.86;48.41;97628.09;5999945;22;102805;-77
2021/01/13 09:44:07;;;;;;;;;2.50;1.75;;;;;11.85;48.62;97621.84;5975764;22;102819;-78
2021/01/13 09:46:34;;;;;;;;;2.00;2.00;;;;;11.85;48.75;97616.41;5990351;22;102896;-78
2021/01/13 09:49:06;;;;;;;;;1.00;1.00;;;;;11.86;49.00;97619.97;6006772;22;104739;-77
2021/01/13 09:51:34;;;;;;;;;1.00;1.00;;;;;11.87;48.03;97616.19;5994076;22;102934;-78
2021/01/13 09:54:04;;;;;;;;;1.75;1.00;;;;;11.86;48.39;97617.25;5974803;22;102781;-77
2021/01/13 09:56:32;;;;;;;;;2.00;1.00;;;;;11.88;48.53;97617.84;5976326;22;102664;-77
2021/01/13 09:59:05;;;;;;;;;1.75;1.75;;;;;11.89;48.14;97622.19;6000006;22;104062;-77
2021/01/13 10:01:35;;;;;;;;;0.75;0.75;;;;;11.89;48.77;97614.91;5996277;22;104036;-78
2021/01/13 10:04:11;;;;;;;;;1.00;1.00;;;;;11.89;48.68;97600.53;6001359;22;103007;-78
2021/01/13 10:06:42;;;;;;;;;1.00;1.00;;;;;11.88;48.70;97624.09;5999949;22;102458;-78
2021/01/13 10:09:18;;;;;;;;;1.75;1.00;;;;;11.89;48.38;97620.31;5914266;22;109469;-78
2021/01/13 10:11:51;;;;;;;;;1.00;1.00;;;;;11.90;48.41;97615.72;5996168;22;102775;-77
2021/01/13 10:14:18;;;;;;;;;1.50;1.00;;;;;11.90;48.36;97610.31;5969382;22;104002;-77
2021/01/13 10:16:46;;;;;;;;;1.50;1.50;;;;;11.93;48.23;97615.28;5977262;22;102872;-77
2021/01/13 10:19:13;;;;;;;;;1.00;1.00;;;;;11.94;48.52;97603.34;6005091;22;103962;-77
2021/01/13 10:21:44;;;;;;;;;1.75;1.75;;;;;11.95;48.34;97602.31;6006278;22;102589;-78
2021/01/13 10:24:12;;;;;;;;;1.00;1.00;;;;;11.95;48.22;97613.97;6005720;22;102576;-78
2021/01/13 10:26:44;;;;;;;;;2.00;1.00;;;;;11.96;48.51;97612.09;6001806;22;102660;-77
2021/01/13 10:29:12;;;;;;;;;1.50;1.25;;;;;11.94;48.33;97608.78;6001184;22;108645;-77
2021/01/13 10:31:39;;;;;;;;;2.75;2.25;;;;;11.93;47.90;97617.97;5978790;22;102671;-77
2021/01/13 10:34:06;;;;;;;;;1.00;1.00;;;;;11.93;48.18;97618.78;6004449;22;102482;-77
2021/01/13 10:36:40;;;;;;;;;2.00;2.00;;;;;11.92;47.94;97613.63;6002176;22;102893;-78
2021/01/13 10:39:16;;;;;;;;;1.25;1.00;;;;;11.90;48.07;97613.84;5995582;22;104147;-78
2021/01/13 10:41:51;;;;;;;;;1.75;1.75;;;;;11.89;48.70;97601.34;6000115;22;102954;-77
2021/01/13 10:44:20;;;;;;;;;2.00;1.25;;;;;11.88;48.50;97599.72;6003098;22;105569;-77
2021/01/13 10:47:09;;;;;;;;;3.00;2.00;;;;;11.89;48.31;97605.94;5997902;22;102860;-78
2021/01/13 10:49:43;;;;;;;;;2.50;2.25;;;;;11.87;48.34;97603.47;6000649;22;103887;-77
2021/01/13 10:52:20;;;;;;;;;3.00;2.00;;;;;11.85;48.71;97583.91;6004555;22;102605;-77
2021/01/13 10:54:47;;;;;;;;;1.25;1.00;;;;;11.88;47.98;97598.91;5979759;22;102711;-77
2021/01/13 10:57:16;;;;;;;;;2.00;1.00;;;;;11.87;48.27;97597.25;6005492;22;102904;-77
2021/01/13 10:59:44;;;;;;;;;2.00;2.00;;;;;11.85;48.61;97597.47;6003666;22;105398;-77
2021/01/13 11:02:12;;;;;;;;;1.00;1.00;;;;;11.86;48.15;97603.72;5992206;22;102806;-77
2021/01/13 11:04:40;;;;;;;;;2.25;2.25;;;;;11.86;48.33;97599.13;6003196;22;102528;-78
2021/01/13 11:07:16;;;;;;;;;1.00;1.00;;;;;11.84;48.29;97592.28;6004795;22;102789;-78
2021/01/13 11:09:52;;;;;;;;;3.75;1.00;;;;;11.85;48.58;97593.91;6002953;22;109269;-77
2021/01/13 11:12:25;;;;;;;;;2.00;2.00;;;;;11.85;48.65;97586.63;5928933;22;102770;-77
2021/01/13 11:14:52;;;;;;;;;2.00;1.00;;;;;11.83;48.59;97591.47;6004158;22;102811;-77
2021/01/13 11:17:24;;;;;;;;;3.00;2.00;;;;;11.83;48.21;97586.06;6011539;22;102789;-77
2021/01/13 11:19:55;;;;;;;;;3.00;2.00;;;;;11.83;48.15;97574.38;6011735;22;104779;-78
2021/01/13 11:22:45;;;;;;;;;3.00;2.00;;;;;11.83;48.07;97571.69;6005511;22;102766;-77
2021/01/13 11:25:44;;;;;;;;;3.00;1.25;;;;;11.84;48.11;97578.75;6007266;22;102793;-78
2021/01/13 11:28:13;;;;;;;;;3.25;2.00;;;;;11.83;48.42;97571.69;5930150;22;102812;-77
2021/01/13 11:30:44;;;;;;;;;3.00;2.00;;;;;11.84;48.16;97567.91;6013134;22;109516;-77
2021/01/13 11:33:13;;;;;;;;;2.00;2.00;;;;;11.83;48.16;97558.97;5982736;22;102554;-78
2021/01/13 11:35:43;;;;;;;;;2.25;2.25;;;;;11.83;48.42;97566.25;6010275;22;102782;-77
2021/01/13 11:38:22;;;;;;;;;1.00;1.00;;;;;11.84;48.32;97559.78;6012034;22;102558;-77
2021/01/13 11:40:51;;;;;;;;;2.75;2.75;;;;;11.83;48.64;97556.25;5922369;22;108776;-77
2021/01/13 11:43:32;;;;;;;;;2.50;2.50;;;;;11.84;48.14;97562.50;6009985;22;102749;-77
2021/01/13 11:46:23;;;;;;;;;2.50;2.50;;;;;11.84;48.21;97565.22;6010651;22;103935;-77
2021/01/13 11:49:18;;;;;;;;;3.00;2.00;;;;;11.82;48.05;97561.91;5906802;22;102664;-77
2021/01/13 11:51:47;;;;;;;;;1.75;1.00;;;;;11.83;48.57;97552.72;6007152;22;109546;-77